Time;durP1;ratioP1;P1;durP2;ratioP2;P2;SDS_P1;SDS_P2;PMS_P1;PMS_P2;Temp;Humidity;BMP_temperature;BMP_pressure;BME280_temperature;BME280_humidity;BME280_pressure;Samples;Min_cycle;Max_cycle;Signal;HPM_P1;HPM_P2
2023/10/07 00:00:37;;;;;;;9.95;3.22;;;;;;;21.10;70.65;102207.06;4989764;28;20126;-44
2023/10/07 00:03:06;;;;;;;9.43;3.08;;;;;;;21.14;70.44;102203.47;4989908;28;20043;-46
2023/10/07 00:05:35;;;;;;;9.88;2.80;;;;;;;21.06;70.32;102204.41;4988444;28;20034;-46
2023/10/07 00:08:03;;;;;;;6.97;2.63;;;;;;;21.21;69.54;102203.44;4989632;28;20043;-47
2023/10/07 00:10:31;;;;;;;8.32;2.80;;;;;;;21.32;69.14;102187.41;4989558;28;20042;-43
2023/10/07 00:12:57;;;;;;;10.07;3.10;;;;;;;20.98;70.20;102193.00;4989933;28;20041;-46
2023/10/07 00:15:28;;;;;;;12.30;3.33;;;;;;;21.00;70.05;102188.56;4990347;28;20061;-44
2023/10/07 00:17:57;;;;;;;7.78;2.67;;;;;;;21.35;68.66;102185.59;4991395;28;20034;-43
2023/10/07 00:20:23;;;;;;;7.78;2.72;;;;;;;21.24;69.00;102182.19;4991372;28;20478;-46
2023/10/07 00:22:54;;;;;;;12.02;2.83;;;;;;;21.34;68.22;102178.56;4990180;28;20110;-47
2023/10/07 00:25:21;;;;;;;6.32;2.60;;;;;;;21.35;67.89;102171.44;4990408;28;20065;-44
2023/10/07 00:27:48;;;;;;;9.85;2.80;;;;;;;21.52;67.44;102166.88;4990362;28;20089;-46
2023/10/07 00:30:16;;;;;;;7.93;2.38;;;;;;;21.72;66.37;102170.13;4989397;28;20075;-45
2023/10/07 00:32:45;;;;;;;10.43;2.80;;;;;;;21.37;67.43;102165.25;4989828;28;20027;-42
2023/10/07 00:35:11;;;;;;;11.70;3.20;;;;;;;21.49;66.94;102168.66;4990734;28;20084;-45
2023/10/07 00:37:43;;;;;;;10.38;2.60;;;;;;;21.51;66.70;102166.88;4992856;28;20041;-45
2023/10/07 00:40:24;;;;;;;11.13;2.85;;;;;;;21.35;67.95;102168.78;4993321;28;20038;-44
2023/10/07 00:42:50;;;;;;;8.20;2.70;;;;;;;21.45;67.50;102170.47;4992205;28;20030;-45
2023/10/07 00:45:16;;;;;;;8.45;3.15;;;;;;;21.57;66.83;102177.41;4993321;28;20026;-44
2023/10/07 00:47:49;;;;;;;8.95;2.70;;;;;;;21.62;66.47;102191.50;4993438;28;20504;-44
2023/10/07 00:50:15;;;;;;;7.60;2.70;;;;;;;21.48;67.08;102202.28;4992882;28;20042;-44
2023/10/07 00:52:56;;;;;;;7.97;2.65;;;;;;;21.31;68.06;102190.97;4992713;28;20050;-46
2023/10/07 00:55:29;;;;;;;6.53;2.50;;;;;;;21.27;68.02;102195.44;4992257;28;20040;-46
2023/10/07 00:58:06;;;;;;;9.45;2.50;;;;;;;21.58;66.72;102193.34;4992539;28;20041;-48
2023/10/07 01:00:48;;;;;;;9.63;2.60;;;;;;;21.30;68.03;102183.88;4992462;28;20397;-46
2023/10/07 01:08:28;;;;;;;8.23;2.67;;;;;;;21.68;66.97;102199.41;4992110;28;20065;-45
2023/10/07 01:11:19;;;;;;;8.13;2.80;;;;;;;21.36;68.11;102189.13;4992461;28;20114;-46
2023/10/07 01:13:50;;;;;;;8.77;3.00;;;;;;;21.66;66.95;102188.78;4992243;28;20445;-45
2023/10/07 01:16:26;;;;;;;8.43;2.80;;;;;;;21.72;66.87;102179.88;4992180;28;20146;-46
2023/10/07 01:18:59;;;;;;;7.85;2.83;;;;;;;21.30;68.45;102189.19;4992511;28;20557;-44
2023/10/07 01:21:32;;;;;;;8.73;2.70;;;;;;;21.37;68.70;102183.81;4991927;28;20031;-45
2023/10/07 01:24:05;;;;;;;11.47;2.97;;;;;;;21.54;67.92;102180.97;4992148;28;20046;-47
2023/10/07 01:26:33;;;;;;;11.30;3.05;;;;;;;21.51;68.38;102183.69;4991761;28;20048;-44
2023/10/07 01:29:15;;;;;;;10.77;2.80;;;;;;;21.38;69.10;102188.22;4992076;28;20046;-46
2023/10/07 01:31:59;;;;;;;10.27;2.72;;;;;;;21.48;68.92;102174.84;4992033;28;20453;-46
2023/10/07 01:34:34;;;;;;;10.07;2.80;;;;;;;21.44;68.95;102176.66;4991950;28;20488;-47
2023/10/07 01:37:03;;;;;;;13.48;3.22;;;;;;;21.09;70.87;102162.88;4991590;28;20042;-45
2023/10/07 01:39:39;;;;;;;11.25;3.03;;;;;;;21.35;69.98;102168.78;4992505;28;20408;-44
2023/10/07 01:42:06;;;;;;;11.30;2.92;;;;;;;21.12;70.84;102168.13;4993839;28;20041;-45
2023/10/07 01:44:32;;;;;;;10.80;2.85;;;;;;;21.24;70.74;102176.00;4992415;28;20038;-45
2023/10/07 01:46:57;;;;;;;9.30;2.88;;;;;;;21.32;70.10;102183.00;4991613;28;20035;-46
2023/10/07 01:49:23;;;;;;;12.73;3.00;;;;;;;21.29;70.93;102163.56;4991137;28;20037;-45
2023/10/07 01:51:52;;;;;;;10.65;3.00;;;;;;;21.58;69.35;102169.44;4991409;28;20582;-45
2023/10/07 01:54:19;;;;;;;11.90;2.70;;;;;;;21.05;72.01;102162.88;4991233;28;20048;-48
2023/10/07 01:56:47;;;;;;;12.43;2.83;;;;;;;21.38;70.97;102174.97;4991589;28;20026;-44
2023/10/07 02:01:41;;;;;;;12.73;3.00;;;;;;;21.56;69.68;102178.31;4991314;28;20034;-44
2023/10/07 02:04:16;;;;;;;9.40;2.70;;;;;;;21.74;69.40;102165.69;4991563;28;20042;-47
2023/10/07 02:06:50;;;;;;;12.07;3.25;;;;;;;21.62;69.54;102157.88;4989667;28;20516;-49
2023/10/07 02:09:23;;;;;;;14.25;3.22;;;;;;;21.50;70.68;102165.09;4991077;28;20042;-46
2023/10/07 02:11:48;;;;;;;12.48;3.08;;;;;;;21.45;70.49;102158.09;4991071;28;20124;-45
2023/10/07 02:14:14;;;;;;;12.98;3.10;;;;;;;21.37;70.94;102165.25;4990883;28;20053;-47
2023/10/07 02:16:39;;;;;;;13.23;3.10;;;;;;;21.33;71.64;102166.19;4991276;28;20034;-46
2023/10/07 02:19:04;;;;;;;11.05;3.10;;;;;;;21.53;70.35;102159.78;4991114;28;20043;-45
2023/10/07 02:21:30;;;;;;;10.38;3.10;;;;;;;21.33;71.62;102167.97;4990603;28;20084;-45
2023/10/07 02:23:55;;;;;;;12.00;3.40;;;;;;;21.17;71.61;102163.69;4991214;28;20042;-48
2023/10/07 02:26:21;;;;;;;11.02;2.83;;;;;;;21.33;71.62;102167.97;4990998;28;20038;-46
2023/10/07 02:28:51;;;;;;;12.85;3.20;;;;;;;21.38;71.34;102180.28;4992262;28;20041;-45
2023/10/07 02:31:21;;;;;;;12.30;3.00;;;;;;;21.43;71.33;102170.47;4991543;28;20048;-45
2023/10/07 02:33:52;;;;;;;10.27;3.10;;;;;;;21.48;70.95;102165.13;4991496;28;20398;-48
2023/10/07 02:39:18;;;;;;;7.57;2.50;;;;;;;21.33;71.50;102160.88;4992905;28;20604;-44
2023/10/07 02:41:47;;;;;;;11.30;2.90;;;;;;;21.49;70.35;102153.63;4992176;28;20672;-44
2023/10/07 02:44:17;;;;;;;7.45;2.47;;;;;;;21.59;70.29;102149.94;4990959;28;20197;-44
2023/10/07 02:46:43;;;;;;;9.23;2.72;;;;;;;21.39;71.33;102147.56;4991231;28;20117;-46
2023/10/07 02:49:13;;;;;;;11.18;2.90;;;;;;;21.15;72.26;102147.81;4990768;28;20632;-46
2023/10/07 02:51:46;;;;;;;10.77;2.90;;;;;;;21.50;71.05;102149.19;4990435;28;20431;-46
2023/10/07 02:54:18;;;;;;;12.85;3.10;;;;;;;21.37;71.80;102151.97;4989237;28;20624;-47
2023/10/07 02:57:24;;;;;;;10.80;2.90;;;;;;;21.65;70.56;102138.41;4988886;28;20065;-49
2023/10/07 02:59:51;;;;;;;8.82;2.72;;;;;;;21.71;70.14;102144.50;4990471;28;20042;-48
2023/10/07 03:04:59;;;;;;;10.88;2.80;;;;;;;21.70;70.67;102141.88;4990713;28;20031;-44
2023/10/07 03:07:25;;;;;;;7.93;2.75;;;;;;;21.43;70.98;102143.94;4990112;28;20496;-47
2023/10/07 03:10:16;;;;;;;14.88;2.80;;;;;;;21.60;70.70;102142.88;4990618;28;20124;-45
2023/10/07 03:12:48;;;;;;;10.57;2.97;;;;;;;21.49;71.41;102155.38;4990245;28;20034;-43
2023/10/07 03:18:03;;;;;;;8.13;2.53;;;;;;;21.65;70.76;102149.03;4990343;28;20117;-44
2023/10/07 03:20:31;;;;;;;8.23;2.70;;;;;;;21.76;70.05;102158.63;4988834;28;20384;-46
2023/10/07 03:23:25;;;;;;;11.35;2.60;;;;;;;21.49;71.75;102145.66;4989752;28;20408;-45
2023/10/07 03:28:24;;;;;;;8.88;2.60;;;;;;;21.47;72.00;102147.44;4989821;28;20506;-47
2023/10/07 03:30:51;;;;;;;10.20;2.60;;;;;;;21.82;69.95;102144.38;4990373;28;20034;-47
2023/10/07 03:33:32;;;;;;;10.48;3.00;;;;;;;21.42;71.73;102147.50;4989539;28;20114;-48
2023/10/07 03:38:27;;;;;;;11.15;2.70;;;;;;;21.68;70.84;102141.00;4988542;28;20045;-45
2023/10/07 03:40:56;;;;;;;13.38;2.78;;;;;;;21.58;71.25;102140.25;4990203;28;20043;-45
2023/10/07 03:43:26;;;;;;;10.75;2.45;;;;;;;21.69;71.03;102140.13;4989462;28;20031;-44
2023/10/07 03:45:55;;;;;;;9.10;2.67;;;;;;;21.62;71.01;102149.94;4990269;28;20527;-41
2023/10/07 03:48:31;;;;;;;10.70;2.55;;;;;;;21.73;70.37;102145.34;4989760;28;20041;-46
2023/10/07 03:51:08;;;;;;;8.95;2.50;;;;;;;21.44;71.69;102145.72;4990314;28;20035;-44
2023/10/07 03:53:47;;;;;;;8.52;2.60;;;;;;;21.53;71.26;102150.03;4989165;28;20096;-46
2023/10/07 03:56:14;;;;;;;9.85;3.15;;;;;;;21.44;71.58;102145.72;4989332;28;20037;-44
2023/10/07 03:58:41;;;;;;;9.65;2.50;;;;;;;21.51;71.49;102135.91;4989795;28;20034;-45
2023/10/07 04:01:16;;;;;;;7.70;2.53;;;;;;;21.75;70.15;102146.22;4990012;28;20592;-49
2023/10/07 04:03:49;;;;;;;12.55;2.92;;;;;;;21.62;70.57;102147.28;4989475;28;20133;-45
2023/10/07 04:06:27;;;;;;;8.75;2.50;;;;;;;21.72;70.42;102148.91;4989434;28;20410;-44
2023/10/07 04:08:56;;;;;;;10.27;2.60;;;;;;;21.58;70.65;102139.38;4990060;28;20109;-44
2023/10/07 04:11:28;;;;;;;11.73;2.97;;;;;;;21.48;71.29;102124.44;4989613;28;20153;-45
2023/10/07 04:13:57;;;;;;;9.68;2.70;;;;;;;21.63;70.62;102125.16;4994101;28;20030;-44
2023/10/07 04:16:24;;;;;;;8.05;2.50;;;;;;;21.78;69.79;102126.72;4993452;28;20256;-44
2023/10/07 04:18:50;;;;;;;9.50;2.75;;;;;;;21.72;69.83;102125.00;4994341;28;20206;-43
2023/10/07 04:21:16;;;;;;;10.95;2.80;;;;;;;21.50;70.61;102115.56;4993165;28;20042;-44
2023/10/07 04:23:44;;;;;;;8.20;2.47;;;;;;;21.60;70.29;102114.56;4993632;28;20456;-45
2023/10/07 04:26:12;;;;;;;12.68;2.58;;;;;;;21.67;69.84;102121.56;4993231;28;20531;-43
2023/10/07 04:28:41;;;;;;;8.05;2.80;;;;;;;21.71;69.57;102123.25;4993242;28;20125;-46
2023/10/07 04:31:12;;;;;;;9.52;2.90;;;;;;;21.61;70.25;102123.41;4993054;28;20030;-45
2023/10/07 04:34:02;;;;;;;7.53;2.47;;;;;;;21.71;69.79;102112.63;4992810;28;20045;-46
2023/10/07 04:36:33;;;;;;;9.73;2.53;;;;;;;21.47;70.25;102110.28;4992172;28;20034;-43
2023/10/07 04:39:07;;;;;;;6.38;2.40;;;;;;;21.61;70.20;102113.66;4994280;28;20482;-45
2023/10/07 04:41:33;;;;;;;12.13;2.78;;;;;;;21.68;69.57;102118.00;4995042;28;20061;-51
2023/10/07 04:43:59;;;;;;;11.35;2.70;;;;;;;21.57;69.93;102117.25;4992853;28;20035;-48
2023/10/07 04:46:42;;;;;;;7.47;2.33;;;;;;;21.55;69.53;102111.09;4992191;28;20048;-44
2023/10/07 04:49:14;;;;;;;10.43;2.60;;;;;;;21.59;69.45;102117.25;4992983;28;20041;-44
2023/10/07 04:54:08;;;;;;;9.57;4.32;;;;;;;21.50;70.02;102117.34;4992748;28;20121;-45
2023/10/07 04:56:35;;;;;;;10.90;2.92;;;;;;;21.45;70.31;102109.44;4992264;28;20584;-46
2023/10/07 04:59:00;;;;;;;9.30;2.70;;;;;;;21.59;69.43;102111.94;4992690;28;20042;-46
2023/10/07 05:01:33;;;;;;;9.63;2.83;;;;;;;21.49;70.44;102116.47;4992133;28;20399;-46
2023/10/07 05:03:59;;;;;;;9.02;2.60;;;;;;;21.59;69.77;102110.13;4992669;28;20146;-44
2023/10/07 05:06:25;;;;;;;10.27;2.47;;;;;;;21.62;69.50;102117.19;4991995;28;20404;-45
2023/10/07 05:08:51;;;;;;;6.68;2.50;;;;;;;21.51;69.91;102119.09;4992668;28;20038;-45
2023/10/07 05:11:18;;;;;;;8.63;2.45;;;;;;;21.47;70.52;102130.66;4991668;28;20042;-46
2023/10/07 05:13:45;;;;;;;7.75;2.50;;;;;;;21.46;70.88;102132.44;4992236;28;20034;-45
2023/10/07 05:16:11;;;;;;;6.85;2.20;;;;;;;21.57;70.37;102143.81;4991576;28;20046;-49
2023/10/07 05:18:38;;;;;;;8.65;2.35;;;;;;;21.63;70.21;102142.84;4992427;28;20031;-45
2023/10/07 05:21:04;;;;;;;9.00;2.28;;;;;;;21.39;71.02;102146.66;4992078;28;20415;-43
2023/10/07 05:23:30;;;;;;;9.50;2.42;;;;;;;21.33;71.79;102146.72;4990532;28;20089;-44
2023/10/07 05:25:55;;;;;;;8.43;2.70;;;;;;;21.37;71.30;102140.50;4992285;28;20042;-46
2023/10/07 05:28:21;;;;;;;8.65;2.20;;;;;;;21.45;71.35;102133.34;4991964;28;20073;-45
2023/10/07 05:30:51;;;;;;;7.15;2.33;;;;;;;21.52;70.87;102131.50;4993883;28;20034;-48
2023/10/07 05:33:19;;;;;;;6.65;2.50;;;;;;;21.41;71.23;102131.59;4993905;28;20404;-43
2023/10/07 05:35:44;;;;;;;9.80;2.40;;;;;;;21.21;72.36;102130.94;4992204;28;20040;-44
2023/10/07 05:38:10;;;;;;;8.95;2.60;;;;;;;21.45;71.62;102136.88;4992687;28;20090;-48
2023/10/07 05:40:40;;;;;;;7.65;2.50;;;;;;;21.39;71.73;102144.00;4992533;28;20065;-46
2023/10/07 05:43:08;;;;;;;7.63;2.20;;;;;;;21.26;72.00;102148.56;4991931;28;20034;-44
2023/10/07 05:45:36;;;;;;;8.15;2.63;;;;;;;21.49;70.79;102145.66;4991759;28;20030;-44
2023/10/07 05:48:03;;;;;;;9.32;2.50;;;;;;;21.32;71.99;102142.31;4992654;28;20113;-47
2023/10/07 05:50:28;;;;;;;7.85;2.60;;;;;;;21.38;71.37;102135.16;4991516;28;20045;-45
2023/10/07 05:52:54;;;;;;;8.25;2.53;;;;;;;21.35;72.05;102135.19;4992593;28;20026;-45
2023/10/07 05:55:19;;;;;;;9.85;2.40;;;;;;;21.48;71.37;102129.75;4992440;28;20086;-45
2023/10/07 05:57:45;;;;;;;6.47;2.30;;;;;;;21.47;71.08;102123.56;4992571;28;20034;-44
2023/10/07 06:00:11;;;;;;;9.77;2.88;;;;;;;21.17;72.37;102129.19;4992384;28;20034;-49
2023/10/07 06:02:40;;;;;;;9.13;2.50;;;;;;;21.33;72.22;102128.16;4992351;28;20058;-44
2023/10/07 06:05:06;;;;;;;10.18;2.45;;;;;;;21.49;71.37;102134.16;4992108;28;20045;-47
2023/10/07 06:07:32;;;;;;;10.45;2.50;;;;;;;21.37;71.76;102135.19;4991423;28;20035;-46
2023/10/07 06:09:59;;;;;;;11.38;2.80;;;;;;;21.34;72.53;102133.47;4991889;28;20040;-42
2023/10/07 06:12:24;;;;;;;7.53;2.30;;;;;;;21.39;72.34;102134.28;4991617;28;20507;-44
2023/10/07 06:14:49;;;;;;;10.50;2.78;;;;;;;21.40;71.43;102135.16;4992429;28;20034;-44
2023/10/07 06:17:15;;;;;;;8.30;2.55;;;;;;;21.44;71.60;102134.22;4991193;28;20043;-46
2023/10/07 06:19:43;;;;;;;8.50;2.45;;;;;;;21.64;70.94;102126.91;4991225;28;20034;-44
2023/10/07 06:22:12;;;;;;;9.27;2.60;;;;;;;21.33;71.63;102126.41;4991591;28;20034;-45
2023/10/07 06:24:39;;;;;;;9.32;2.65;;;;;;;21.43;71.63;102119.19;4990623;28;20035;-45
2023/10/07 06:27:11;;;;;;;8.60;2.60;;;;;;;21.52;71.23;102111.13;4990582;28;20780;-44
2023/10/07 06:29:43;;;;;;;8.07;2.33;;;;;;;21.58;70.74;102107.53;4990619;28;20119;-46
2023/10/07 06:32:37;;;;;;;11.20;3.10;;;;;;;21.41;71.79;102111.25;4990833;28;20078;-46
2023/10/07 06:35:07;;;;;;;12.07;2.70;;;;;;;21.52;71.75;102113.78;4990764;28;20076;-45
2023/10/07 06:37:33;;;;;;;8.45;2.65;;;;;;;21.53;71.32;102107.56;4989045;28;20466;-44
2023/10/07 06:40:00;;;;;;;7.90;2.90;;;;;;;21.49;71.58;102104.97;4990922;28;20386;-46
2023/10/07 06:42:26;;;;;;;12.30;2.80;;;;;;;21.49;71.58;102111.16;4991953;28;20034;-44
2023/10/07 06:44:55;;;;;;;8.82;2.60;;;;;;;21.59;71.11;102130.53;4991202;28;20037;-45
2023/10/07 06:47:23;;;;;;;10.75;2.60;;;;;;;21.51;71.18;102135.03;4990747;28;20041;-47
2023/10/07 06:49:48;;;;;;;10.25;2.90;;;;;;;21.36;71.93;102144.03;4990718;28;20405;-46
2023/10/07 06:52:17;;;;;;;8.45;2.60;;;;;;;21.53;71.72;102159.78;4989734;28;20378;-48
2023/10/07 06:54:42;;;;;;;9.98;2.63;;;;;;;21.59;70.74;102160.56;4990846;28;20041;-45
2023/10/07 06:57:10;;;;;;;7.57;2.63;;;;;;;21.59;71.49;102152.59;4990551;28;20042;-44
2023/10/07 06:59:45;;;;;;;11.65;2.75;;;;;;;21.75;70.83;102140.03;4990400;28;20094;-46
2023/10/07 07:02:11;;;;;;;9.82;2.55;;;;;;;22.07;70.02;102147.63;4988853;28;20385;-45
2023/10/07 07:04:38;;;;;;;13.45;2.92;;;;;;;21.71;70.49;102148.94;4990454;28;20069;-47
2023/10/07 07:07:10;;;;;;;8.75;2.70;;;;;;;22.08;69.32;102165.31;4990292;28;20038;-49
2023/10/07 07:09:50;;;;;;;8.25;2.85;;;;;;;22.07;69.61;102168.88;4989915;28;20469;-46
2023/10/07 07:12:18;;;;;;;13.32;3.10;;;;;;;22.33;67.99;102172.00;4989781;28;20042;-48
2023/10/07 07:14:51;;;;;;;13.57;3.10;;;;;;;22.29;68.30;102174.75;4990221;28;20412;-45
2023/10/07 07:22:35;;;;;;;9.73;3.08;;;;;;;22.11;68.98;102194.47;4989445;28;20033;-50
2023/10/07 07:25:05;;;;;;;12.38;3.13;;;;;;;22.11;68.92;102197.13;4990100;28;20432;-48
2023/10/07 07:27:34;;;;;;;9.50;3.28;;;;;;;22.02;69.11;102200.78;4988454;28;20493;-47
2023/10/07 07:30:03;;;;;;;12.95;3.10;;;;;;;22.25;68.27;102209.34;4989951;28;20400;-47
2023/10/07 07:32:33;;;;;;;12.73;3.05;;;;;;;22.02;68.88;102216.72;4988232;28;20489;-48
2023/10/07 07:35:03;;;;;;;11.85;3.15;;;;;;;22.33;67.71;102205.66;4990469;28;20034;-47
2023/10/07 07:37:31;;;;;;;13.25;3.08;;;;;;;22.24;68.28;102209.34;4989735;28;20647;-44
2023/10/07 07:40:43;;;;;;;10.27;2.92;;;;;;;22.29;68.11;102201.31;4989833;28;20034;-45
2023/10/07 07:42:55;;;;;;;12.20;2.88;;;;;;;21.97;69.20;102213.22;4978697;28;20405;-47
2023/10/07 07:45:29;;;;;;;13.90;3.22;;;;;;;21.97;68.58;102199.97;4989537;28;20581;-48
2023/10/07 07:47:55;;;;;;;10.63;2.95;;;;;;;22.15;68.11;102188.22;4992033;28;20038;-51
2023/10/07 07:50:22;;;;;;;12.45;3.00;;;;;;;22.25;67.08;102184.53;4993276;28;20049;-47
2023/10/07 07:52:49;;;;;;;14.75;2.90;;;;;;;22.14;68.10;102186.47;4993778;28;20550;-48
2023/10/07 07:55:16;;;;;;;12.30;3.03;;;;;;;22.35;67.16;102178.19;4993656;28;20065;-43
2023/10/07 07:57:44;;;;;;;14.57;2.90;;;;;;;22.35;67.30;102178.19;4993926;28;20035;-47
2023/10/07 08:00:20;;;;;;;13.43;3.28;;;;;;;22.39;66.73;102182.53;4994173;28;20046;-45
2023/10/07 08:02:48;;;;;;;12.02;2.85;;;;;;;22.37;66.84;102186.16;4993839;28;20031;-47
2023/10/07 08:05:16;;;;;;;12.55;3.20;;;;;;;22.61;65.31;102185.78;4993885;28;20070;-45
2023/10/07 08:07:43;;;;;;;14.20;3.15;;;;;;;22.14;66.20;102189.13;4994466;28;20097;-44
2023/10/07 08:10:10;;;;;;;10.40;2.78;;;;;;;22.93;64.81;102194.13;4994096;28;20181;-44
2023/10/07 08:12:37;;;;;;;11.80;3.10;;;;;;;22.54;66.18;102197.41;4993630;28;20037;-45
2023/10/07 08:17:39;;;;;;;10.85;3.05;;;;;;;23.03;64.45;102190.41;4993521;28;20041;-45
2023/10/07 08:20:23;;;;;;;13.93;3.38;;;;;;;22.86;65.02;102191.63;4993517;28;20712;-45
2023/10/07 08:22:52;;;;;;;12.48;3.35;;;;;;;22.72;65.04;102183.84;4992979;28;20039;-44
2023/10/07 08:25:29;;;;;;;12.20;3.30;;;;;;;22.72;64.73;102201.56;4993155;28;20643;-47
2023/10/07 08:27:55;;;;;;;19.23;3.58;;;;;;;22.74;65.73;102186.50;4993104;28;20512;-45
2023/10/07 08:30:37;;;;;;;14.95;3.55;;;;;;;22.87;65.03;102188.06;4992762;28;20354;-44
2023/10/07 08:33:06;;;;;;;13.75;3.10;;;;;;;22.96;65.63;102187.88;4992999;28;20441;-46
2023/10/07 08:35:34;;;;;;;11.23;3.30;;;;;;;23.11;64.09;102189.41;4992863;28;20050;-46
2023/10/07 08:38:16;;;;;;;13.02;3.38;;;;;;;23.15;64.28;102188.44;4993061;28;20046;-46
2023/10/07 08:40:49;;;;;;;16.90;3.38;;;;;;;22.71;64.81;102182.06;4992818;28;20105;-47
2023/10/07 08:43:20;;;;;;;11.98;3.55;;;;;;;23.21;63.20;102201.63;4992898;28;20046;-46
2023/10/07 08:45:45;;;;;;;17.55;3.58;;;;;;;22.87;65.20;102188.91;4993697;28;20700;-44
2023/10/07 08:48:15;;;;;;;11.70;3.17;;;;;;;23.22;63.47;102190.09;4993012;28;20053;-44
2023/10/07 08:50:55;;;;;;;13.73;3.65;;;;;;;22.94;62.77;102203.84;4993410;28;20097;-48
2023/10/07 08:53:23;;;;;;;13.88;3.42;;;;;;;23.22;62.49;102206.94;4992326;28;20465;-45
2023/10/07 08:55:53;;;;;;;16.05;3.63;;;;;;;23.25;60.99;102206.88;4992948;28;20042;-45
2023/10/07 08:58:27;;;;;;;11.13;3.35;;;;;;;23.35;60.65;102200.50;4991459;28;20044;-45
2023/10/07 09:00:53;;;;;;;;;;;;;;;22.97;61.25;102198.50;4993007;28;20385;-45
2023/10/07 09:03:19;;;;;;;12.77;3.65;;;;;;;23.34;59.92;102195.19;4992595;28;19922;-43
2023/10/07 09:05:47;;;;;;;18.33;4.25;;;;;;;23.35;60.15;102188.97;4992889;28;20038;-46
2023/10/07 09:08:12;;;;;;;12.75;3.30;;;;;;;23.09;60.47;102189.44;4992825;28;20568;-46
2023/10/07 09:10:46;;;;;;;13.23;3.50;;;;;;;23.40;60.29;102179.09;4992992;28;20118;-45
2023/10/07 09:13:26;;;;;;;15.15;3.25;;;;;;;23.30;60.29;102180.16;4992638;28;20041;-46
2023/10/07 09:15:54;;;;;;;10.35;3.30;;;;;;;23.09;61.79;102185.91;4992238;28;20037;-45
2023/10/07 09:18:28;;;;;;;12.30;3.47;;;;;;;23.10;61.18;102187.66;4991996;28;20034;-45
2023/10/07 09:20:56;;;;;;;;;;;;;;;23.36;60.59;102188.91;4992910;28;20522;-46
2023/10/07 09:23:23;;;;;;;13.68;3.67;;;;;;;23.15;61.25;102181.34;4991551;28;19918;-45
2023/10/07 09:25:51;;;;;;;10.82;3.53;;;;;;;23.44;60.32;102194.09;4992262;28;20054;-45
2023/10/07 09:28:21;;;;;;;15.98;3.70;;;;;;;22.67;62.17;102197.19;4991716;28;20695;-45
2023/10/07 09:30:48;;;;;;;13.38;3.83;;;;;;;22.76;62.59;102195.31;4992280;28;20030;-45
2023/10/07 09:33:19;;;;;;;12.20;3.67;;;;;;;22.90;62.64;102207.47;4991602;28;20066;-49
2023/10/07 09:35:49;;;;;;;11.07;3.30;;;;;;;23.38;61.39;102219.06;4990861;28;20089;-48
2023/10/07 09:38:33;;;;;;;13.77;3.30;;;;;;;23.19;61.33;102224.72;4991737;28;20046;-45
2023/10/07 09:41:23;;;;;;;16.52;3.30;;;;;;;23.54;59.19;102227.69;4991870;28;20484;-47
2023/10/07 09:43:51;;;;;;;12.00;3.42;;;;;;;23.32;59.48;102224.47;4991703;28;20500;-47
2023/10/07 09:46:39;;;;;;;13.90;3.78;;;;;;;23.44;59.25;102229.59;4991419;28;20096;-45
2023/10/07 09:49:06;;;;;;;11.77;3.55;;;;;;;23.33;59.56;102236.00;4992029;28;20042;-48
2023/10/07 09:51:35;;;;;;;12.48;3.40;;;;;;;23.49;58.60;102229.53;4991611;28;20563;-44
2023/10/07 09:54:16;;;;;;;9.93;3.30;;;;;;;22.80;58.37;102237.78;4990348;28;20038;-48
2023/10/07 09:57:19;;;;;;;15.30;3.47;;;;;;;23.31;57.93;102233.38;4991358;28;20045;-45
2023/10/07 10:03:21;;;;;;;11.52;3.13;;;;;;;23.85;54.93;102218.16;4991158;28;20092;-44
2023/10/07 10:05:49;;;;;;;11.18;3.65;;;;;;;23.38;56.12;102210.19;4991087;28;20030;-46
2023/10/07 10:08:47;;;;;;;14.68;3.63;;;;;;;23.27;57.15;102218.38;4991111;28;20042;-44
2023/10/07 10:11:30;;;;;;;11.65;3.20;;;;;;;23.78;55.51;102202.34;4967674;28;20116;-44
2023/10/07 10:14:14;;;;;;;14.68;3.85;;;;;;;23.57;56.15;102202.75;4991465;28;20472;-45
2023/10/07 10:16:45;;;;;;;11.30;3.65;;;;;;;23.91;55.22;102206.50;4991123;28;20080;-47
2023/10/07 10:19:47;;;;;;;13.85;3.83;;;;;;;23.03;56.93;102209.03;4991476;28;20173;-44
2023/10/07 10:22:22;;;;;;;11.48;3.58;;;;;;;23.36;55.62;102206.69;4990437;28;20050;-44
2023/10/07 10:24:49;;;;;;;10.55;3.53;;;;;;;23.82;55.77;102210.25;4991174;28;20039;-46
2023/10/07 10:27:17;;;;;;;16.17;3.70;;;;;;;23.94;55.99;102210.91;4990972;28;20405;-47
2023/10/07 10:29:55;;;;;;;11.93;4.10;;;;;;;23.40;56.51;102214.59;4990865;28;20061;-44
2023/10/07 10:32:30;;;;;;;11.75;3.70;;;;;;;23.80;57.22;102224.47;4990387;28;20469;-47
2023/10/07 10:35:00;;;;;;;13.60;4.03;;;;;;;23.65;56.45;102220.38;4990871;28;20058;-45
2023/10/07 10:37:28;;;;;;;11.02;3.70;;;;;;;24.04;55.62;102218.66;4990592;28;20042;-45
2023/10/07 10:39:54;;;;;;;20.13;4.10;;;;;;;23.46;56.63;102226.91;4991181;28;20476;-47
2023/10/07 10:42:22;;;;;;;12.15;3.78;;;;;;;23.75;56.28;102231.69;4990540;28;20042;-44
2023/10/07 10:44:48;;;;;;;12.10;3.88;;;;;;;24.22;55.58;102236.94;4991419;28;20042;-44
2023/10/07 10:47:18;;;;;;;11.52;3.78;;;;;;;23.90;55.14;102238.50;4991257;28;20134;-45
2023/10/07 10:49:44;;;;;;;13.77;3.72;;;;;;;23.89;56.13;102242.09;4992624;28;20169;-46
2023/10/07 10:52:11;;;;;;;10.98;3.90;;;;;;;23.33;58.17;102247.53;4992755;28;20034;-45
2023/10/07 10:54:37;;;;;;;9.32;3.38;;;;;;;24.01;56.73;102242.72;4990840;28;20038;-44
2023/10/07 10:57:05;;;;;;;12.52;3.92;;;;;;;24.17;55.26;102235.25;4991683;28;20030;-44
2023/10/07 10:59:48;;;;;;;14.32;4.03;;;;;;;24.34;54.82;102242.91;4991436;28;20038;-44
2023/10/07 11:02:20;;;;;;;9.82;3.95;;;;;;;24.19;54.36;102246.81;4990711;28;20096;-47
2023/10/07 11:04:46;;;;;;;12.10;4.20;;;;;;;23.77;56.20;102236.09;4991308;28;20408;-45
2023/10/07 11:07:14;;;;;;;11.32;3.80;;;;;;;23.95;57.21;102253.50;4990624;28;20030;-45
2023/10/07 11:09:41;;;;;;;14.55;3.95;;;;;;;24.09;55.51;102256.72;4991299;28;20150;-44
2023/10/07 11:12:12;;;;;;;11.75;3.92;;;;;;;24.52;53.31;102253.16;4991063;28;20046;-44
2023/10/07 11:14:40;;;;;;;10.23;3.63;;;;;;;24.27;54.91;102243.03;4990678;28;20057;-45
2023/10/07 11:17:09;;;;;;;10.20;3.60;;;;;;;24.78;53.40;102248.13;4989346;28;20034;-46
2023/10/07 11:19:40;;;;;;;12.98;3.70;;;;;;;24.39;55.11;102241.94;4990075;28;20035;-46
2023/10/07 11:22:07;;;;;;;12.70;3.83;;;;;;;24.41;55.62;102249.88;4989659;28;20037;-46
2023/10/07 11:24:35;;;;;;;10.85;3.97;;;;;;;24.40;54.76;102256.09;4989615;28;20043;-45
2023/10/07 11:27:02;;;;;;;8.43;3.30;;;;;;;23.69;56.53;102262.00;4990231;28;20034;-48
2023/10/07 11:29:30;;;;;;;12.25;3.90;;;;;;;24.04;56.33;102250.63;4989954;28;20043;-48
2023/10/07 11:31:59;;;;;;;11.30;4.10;;;;;;;24.36;55.96;102246.44;4989977;28;20041;-44
2023/10/07 11:34:36;;;;;;;10.68;3.67;;;;;;;24.43;55.26;102245.41;4989547;28;20041;-46
2023/10/07 11:37:09;;;;;;;12.40;3.97;;;;;;;24.66;54.62;102253.75;4990048;28;20030;-45
2023/10/07 11:39:44;;;;;;;13.23;4.32;;;;;;;24.49;55.77;102247.91;4989780;28;20602;-47
2023/10/07 11:42:11;;;;;;;11.13;4.07;;;;;;;24.65;55.05;102255.53;4989964;28;20039;-45
2023/10/07 11:44:38;;;;;;;12.07;4.07;;;;;;;24.64;54.57;102245.75;4989705;28;20062;-46
2023/10/07 11:47:06;;;;;;;9.55;4.38;;;;;;;24.42;55.47;102251.63;4988984;28;20093;-46
2023/10/07 11:49:32;;;;;;;15.30;5.07;;;;;;;24.05;56.57;102259.50;4989890;28;20077;-46
2023/10/07 11:51:57;;;;;;;15.70;4.18;;;;;;;23.76;57.55;102262.75;4989975;28;20121;-47
2023/10/07 11:54:24;;;;;;;13.38;4.47;;;;;;;23.78;58.00;102264.50;4990271;28;20050;-47
2023/10/07 11:56:51;;;;;;;11.10;4.00;;;;;;;24.27;56.42;102261.69;4990752;28;20385;-47
2023/10/07 11:59:16;;;;;;;15.32;4.53;;;;;;;23.99;57.31;102270.28;4989600;28;20042;-45
2023/10/07 12:01:41;;;;;;;18.30;4.63;;;;;;;24.11;56.76;102267.38;4990782;28;20030;-44
2023/10/07 12:04:08;;;;;;;17.80;4.60;;;;;;;23.88;57.47;102265.16;4990691;28;20062;-46
2023/10/07 12:06:33;;;;;;;12.25;4.32;;;;;;;24.06;57.08;102262.13;4990628;28;20473;-44
2023/10/07 12:09:06;;;;;;;19.20;4.40;;;;;;;23.95;57.56;102273.94;4990170;28;20048;-44
2023/10/07 12:11:32;;;;;;;14.90;4.87;;;;;;;23.50;59.69;102259.69;4989630;28;20615;-46